Time;durP1;ratioP1;P1;durP2;ratioP2;P2;SDS_P1;SDS_P2;PMS_P1;PMS_P2;Temp;Humidity;BMP_temperature;BMP_pressure;BME280_temperature;BME280_humidity;BME280_pressure;Samples;Min_cycle;Max_cycle;Signal;HPM_P1;HPM_P2
2021/05/19 04:15:57;;;;;;;10.73;7.10;;;;;;;;;;6178897;23;20024;-74
2021/05/19 04:18:25;;;;;;;8.65;6.57;;;;;;;;;;6183865;23;20021;-74
2021/05/19 04:21:01;;;;;;;8.77;6.95;;;;;;;;;;6185575;23;20382;-74
2021/05/19 04:23:28;;;;;;;7.90;7.00;;;;;;;;;;6184567;23;20001;-76
2021/05/19 04:25:55;;;;;;;9.73;7.03;;;;;;;;;;6158460;23;20009;-75
2021/05/19 04:28:21;;;;;;;10.90;7.00;;;;;;;;;;6158719;23;20001;-75
2021/05/19 04:30:48;;;;;;;10.52;7.50;;;;;;;;;;6159369;23;20430;-75
2021/05/19 04:33:16;;;;;;;13.45;7.28;;;;;;;;;;6158646;23;20005;-72
2021/05/19 04:35:42;;;;;;;9.75;7.35;;;;;;;;;;6158319;23;20024;-75
2021/05/19 04:38:10;;;;;;;11.00;7.05;;;;;;;;;;6158256;23;20016;-75
2021/05/19 04:40:37;;;;;;;7.80;6.32;;;;;;;;;;6184443;23;20005;-74
2021/05/19 04:43:06;;;;;;;8.52;6.53;;;;;;;;;;6158303;23;20032;-73
2021/05/19 04:45:32;;;;;;;8.95;6.38;;;;;;;;;;6158457;23;20049;-74
2021/05/19 04:47:58;;;;;;;6.65;5.28;;;;;;;;;;6158502;23;20004;-73
2021/05/19 04:50:27;;;;;;;8.05;6.05;;;;;;;;;;6158467;23;20013;-74
2021/05/19 04:52:59;;;;;;;9.05;6.03;;;;;;;;;;6158595;23;20013;-74
2021/05/19 04:55:30;;;;;;;8.45;5.72;;;;;;;;;;6158313;23;20666;-74
2021/05/19 04:57:56;;;;;;;8.43;5.75;;;;;;;;;;6158242;23;20391;-73
2021/05/19 05:00:22;;;;;;;8.02;6.05;;;;;;;;;;6158253;23;20510;-73
2021/05/19 05:02:48;;;;;;;7.20;5.28;;;;;;;;;;6158362;23;20311;-73
2021/05/19 05:05:17;;;;;;;6.85;4.90;;;;;;;;;;6184627;23;20373;-75
2021/05/19 05:07:43;;;;;;;7.38;4.90;;;;;;;;;;6184470;23;20001;-73
2021/05/19 05:10:10;;;;;;;9.00;5.55;;;;;;;;;;6157458;23;20016;-73
2021/05/19 05:12:39;;;;;;;6.97;5.00;;;;;;;;;;6157163;23;20009;-74
2021/05/19 05:15:06;;;;;;;6.55;4.63;;;;;;;;;;6157219;23;20013;-74
2021/05/19 05:17:32;;;;;;;6.30;4.70;;;;;;;;;;6183376;23;20084;-73
2021/05/19 05:20:01;;;;;;;7.55;5.75;;;;;;;;;;6158143;23;20005;-75
2021/05/19 05:22:27;;;;;;;6.70;4.63;;;;;;;;;;6159356;23;20024;-71
2021/05/19 05:24:53;;;;;;;6.30;5.00;;;;;;;;;;6159254;23;20009;-73
2021/05/19 05:27:19;;;;;;;6.50;4.70;;;;;;;;;;6185620;23;20001;-73
2021/05/19 05:29:51;;;;;;;8.20;4.55;;;;;;;;;;6185830;23;20335;-74
2021/05/19 05:32:20;;;;;;;8.13;4.32;;;;;;;;;;6185690;23;20044;-74
2021/05/19 05:34:48;;;;;;;5.88;4.28;;;;;;;;;;6184387;23;20009;-75
2021/05/19 05:37:18;;;;;;;6.25;5.00;;;;;;;;;;6184215;23;20326;-75
2021/05/19 05:39:47;;;;;;;5.55;4.38;;;;;;;;;;6183950;23;20080;-78
2021/05/19 05:42:13;;;;;;;8.02;5.07;;;;;;;;;;6184375;23;20005;-72
2021/05/19 05:44:39;;;;;;;7.47;4.50;;;;;;;;;;6158086;23;20001;-73
2021/05/19 05:47:05;;;;;;;7.95;4.20;;;;;;;;;;6183638;23;20020;-74
2021/05/19 05:49:32;;;;;;;5.60;4.45;;;;;;;;;;6157969;23;20088;-75
2021/05/19 05:51:58;;;;;;;13.93;4.82;;;;;;;;;;6157428;23;20446;-74
2021/05/19 05:54:24;;;;;;;6.03;4.22;;;;;;;;;;6184878;23;19997;-73
2021/05/19 05:56:50;;;;;;;4.38;3.63;;;;;;;;;;6185559;23;20001;-74
2021/05/19 05:59:16;;;;;;;5.35;4.45;;;;;;;;;;6185364;23;20006;-76
2021/05/19 06:01:45;;;;;;;4.78;3.85;;;;;;;;;;6159503;23;20001;-74
2021/05/19 06:04:11;;;;;;;5.03;3.75;;;;;;;;;;6185105;23;19997;-74
2021/05/19 06:06:37;;;;;;;5.75;4.18;;;;;;;;;;6185399;23;20024;-75
2021/05/19 06:09:06;;;;;;;5.45;4.10;;;;;;;;;;6185620;23;20008;-74
2021/05/19 06:11:32;;;;;;;5.35;4.47;;;;;;;;;;6185462;23;20004;-74
2021/05/19 06:13:58;;;;;;;6.82;4.35;;;;;;;;;;6185593;23;20005;-75
2021/05/19 06:16:25;;;;;;;6.00;5.00;;;;;;;;;;6185280;23;20033;-74
2021/05/19 06:18:51;;;;;;;17.75;5.07;;;;;;;;;;6185536;23;20056;-74
2021/05/19 06:21:22;;;;;;;7.13;4.72;;;;;;;;;;6185553;23;20002;-74
2021/05/19 06:23:51;;;;;;;8.43;5.20;;;;;;;;;;6185430;23;20414;-75
2021/05/19 06:26:17;;;;;;;9.90;4.68;;;;;;;;;;6159677;23;20005;-73
2021/05/19 06:28:43;;;;;;;8.57;5.03;;;;;;;;;;6185425;23;20418;-74
2021/05/19 06:31:09;;;;;;;6.93;4.10;;;;;;;;;;6159020;23;20009;-74
2021/05/19 06:33:38;;;;;;;7.93;3.88;;;;;;;;;;6185563;23;20001;-75
2021/05/19 06:36:05;;;;;;;6.68;4.00;;;;;;;;;;6158889;23;20005;-74
2021/05/19 06:38:34;;;;;;;4.28;3.35;;;;;;;;;;6159275;23;20071;-73
2021/05/19 06:41:02;;;;;;;5.38;3.53;;;;;;;;;;6185318;23;20017;-74
2021/05/19 06:43:31;;;;;;;4.57;3.10;;;;;;;;;;6185375;23;20072;-74
2021/05/19 06:45:58;;;;;;;4.22;3.17;;;;;;;;;;6158899;23;20008;-74
2021/05/19 06:48:24;;;;;;;3.40;2.53;;;;;;;;;;6159040;23;20009;-74
2021/05/19 06:50:50;;;;;;;3.05;2.70;;;;;;;;;;6158864;23;20088;-73
2021/05/19 06:53:16;;;;;;;2.78;2.40;;;;;;;;;;6185382;23;20012;-74
2021/05/19 06:55:51;;;;;;;3.08;2.33;;;;;;;;;;6187458;23;20009;-74
2021/05/19 06:58:20;;;;;;;2.75;2.38;;;;;;;;;;6161003;23;20068;-75
2021/05/19 07:00:46;;;;;;;4.97;2.90;;;;;;;;;;6160786;23;20009;-75
2021/05/19 07:03:14;;;;;;;12.63;3.40;;;;;;;;;;6161091;23;20390;-73
2021/05/19 07:05:41;;;;;;;6.13;3.08;;;;;;;;;;6160755;23;20028;-74
2021/05/19 07:08:09;;;;;;;6.10;3.42;;;;;;;;;;6161289;23;20813;-75
2021/05/19 07:10:35;;;;;;;4.68;3.38;;;;;;;;;;6160758;23;20422;-73
2021/05/19 07:13:02;;;;;;;4.25;3.80;;;;;;;;;;6160852;23;20009;-71
2021/05/19 07:15:38;;;;;;;7.82;4.10;;;;;;;;;;6186909;23;20001;-75
2021/05/19 07:18:08;;;;;;;5.28;3.58;;;;;;;;;;6182342;23;20013;-71
2021/05/19 07:20:34;;;;;;;5.50;4.05;;;;;;;;;;6185742;23;20048;-71
2021/05/19 07:23:00;;;;;;;5.50;4.00;;;;;;;;;;6178167;23;20009;-71
2021/05/19 07:25:26;;;;;;;4.80;3.70;;;;;;;;;;6185398;23;20005;-71
2021/05/19 07:27:53;;;;;;;5.72;3.88;;;;;;;;;;6176755;23;20019;-70
2021/05/19 07:30:19;;;;;;;9.55;3.80;;;;;;;;;;6185509;23;20457;-70
2021/05/19 07:32:45;;;;;;;6.78;4.15;;;;;;;;;;6175418;23;20083;-70
2021/05/19 07:35:11;;;;;;;8.50;3.95;;;;;;;;;;6185381;23;20009;-70
2021/05/19 07:37:39;;;;;;;8.07;5.30;;;;;;;;;;6173464;23;20059;-69
2021/05/19 07:40:05;;;;;;;6.60;4.78;;;;;;;;;;6186840;23;20001;-70
2021/05/19 07:42:31;;;;;;;8.13;4.63;;;;;;;;;;6186717;23;20334;-71
2021/05/19 07:44:57;;;;;;;8.93;5.82;;;;;;;;;;6186861;23;20064;-72
2021/05/19 07:47:26;;;;;;;10.30;5.75;;;;;;;;;;6181615;23;20457;-73
2021/05/19 07:50:00;;;;;;;8.57;5.28;;;;;;;;;;6185931;23;20001;-76
2021/05/19 07:52:26;;;;;;;7.55;5.40;;;;;;;;;;6182690;23;20013;-73
2021/05/19 07:54:58;;;;;;;7.32;5.47;;;;;;;;;;6176287;23;20087;-75
2021/05/19 07:57:39;;;;;;;6.35;4.60;;;;;;;;;;6184270;23;20349;-73
2021/05/19 08:02:54;;;;;;;9.43;5.00;;;;;;;;;;6158207;23;19922;-73
2021/05/19 08:05:21;;;;;;;6.18;5.10;;;;;;;;;;6181329;23;20013;-73
2021/05/19 08:07:47;;;;;;;7.55;4.30;;;;;;;;;;6174983;23;20016;-71
2021/05/19 08:10:13;;;;;;;7.25;5.35;;;;;;;;;;6183365;23;20445;-73
2021/05/19 08:12:42;;;;;;;10.27;6.03;;;;;;;;;;6172336;23;20028;-73
2021/05/19 08:15:11;;;;;;;8.82;5.40;;;;;;;;;;6185802;23;20068;-72
2021/05/19 08:17:37;;;;;;;7.72;5.35;;;;;;;;;;6186182;23;20322;-73
2021/05/19 08:20:04;;;;;;;8.07;5.32;;;;;;;;;;6178383;23;20001;-73
2021/05/19 08:22:30;;;;;;;7.50;5.72;;;;;;;;;;6185101;23;20067;-73
2021/05/19 08:24:56;;;;;;;11.60;5.43;;;;;;;;;;6176861;23;20005;-73
2021/05/19 08:27:23;;;;;;;9.93;5.90;;;;;;;;;;6184855;23;20039;-74
2021/05/19 08:30:00;;;;;;;6.53;5.20;;;;;;;;;;6176919;23;20433;-75
2021/05/19 08:32:32;;;;;;;6.72;5.43;;;;;;;;;;6187665;23;20001;-72
2021/05/19 08:34:58;;;;;;;6.43;5.20;;;;;;;;;;6186275;23;20079;-71
2021/05/19 08:37:30;;;;;;;5.28;4.32;;;;;;;;;;6182528;23;20005;-71
2021/05/19 08:39:59;;;;;;;8.95;4.82;;;;;;;;;;6176005;23;20024;-72
2021/05/19 08:42:29;;;;;;;7.82;4.90;;;;;;;;;;6184655;23;20004;-72
2021/05/19 08:44:59;;;;;;;7.68;4.75;;;;;;;;;;6176575;23;20326;-73
2021/05/19 08:47:26;;;;;;;9.20;4.93;;;;;;;;;;6184547;23;20116;-73
2021/05/19 08:49:55;;;;;;;8.13;5.30;;;;;;;;;;6175414;23;20028;-72
2021/05/19 08:52:21;;;;;;;7.47;4.97;;;;;;;;;;6184577;23;20144;-71
2021/05/19 08:54:49;;;;;;;6.05;4.60;;;;;;;;;;6174926;23;20132;-74
2021/05/19 08:57:17;;;;;;;7.10;4.60;;;;;;;;;;6184617;23;20442;-72
2021/05/19 08:59:53;;;;;;;7.18;4.63;;;;;;;;;;6173879;23;20005;-72
2021/05/19 09:02:29;;;;;;;10.13;4.15;;;;;;;;;;6184359;23;20001;-72
2021/05/19 09:05:01;;;;;;;21.20;4.30;;;;;;;;;;6175520;23;20001;-71
2021/05/19 09:07:27;;;;;;;9.20;4.18;;;;;;;;;;6183372;23;20088;-71
2021/05/19 09:09:56;;;;;;;7.93;4.22;;;;;;;;;;6174923;23;20013;-72
2021/05/19 09:12:22;;;;;;;9.65;4.30;;;;;;;;;;6184758;23;20009;-71
2021/05/19 09:14:51;;;;;;;6.43;4.97;;;;;;;;;;6175097;23;20011;-73
2021/05/19 09:17:18;;;;;;;9.93;4.80;;;;;;;;;;6183697;23;20024;-72
2021/05/19 09:19:44;;;;;;;5.80;4.45;;;;;;;;;;6173826;23;20001;-71
2021/05/19 09:22:20;;;;;;;7.97;4.72;;;;;;;;;;6184501;23;20009;-72
2021/05/19 09:24:46;;;;;;;8.48;5.15;;;;;;;;;;6184390;23;20084;-71
2021/05/19 09:27:18;;;;;;;9.70;5.68;;;;;;;;;;6184354;23;20036;-72
2021/05/19 09:29:49;;;;;;;8.60;4.75;;;;;;;;;;6173764;23;20005;-71
2021/05/19 09:32:15;;;;;;;6.00;5.32;;;;;;;;;;6186090;23;20433;-73
2021/05/19 09:34:46;;;;;;;7.28;5.97;;;;;;;;;;6173208;23;20327;-71
2021/05/19 09:37:11;;;;;;;7.60;5.22;;;;;;;;;;6184276;23;20339;-73
2021/05/19 09:39:57;;;;;;;6.47;4.75;;;;;;;;;;6172345;23;20001;-71
2021/05/19 09:42:26;;;;;;;7.13;4.55;;;;;;;;;;6184308;23;20083;-72
2021/05/19 09:44:55;;;;;;;8.00;5.65;;;;;;;;;;6175622;23;20001;-73
2021/05/19 09:47:40;;;;;;;10.00;5.28;;;;;;;;;;6184335;23;20005;-71
2021/05/19 09:50:07;;;;;;;7.15;5.35;;;;;;;;;;6178355;23;20419;-71
2021/05/19 09:52:33;;;;;;;7.72;4.70;;;;;;;;;;6184246;23;20005;-72
2021/05/19 09:55:07;;;;;;;5.82;4.68;;;;;;;;;;6177009;23;20001;-72
2021/05/19 09:57:48;;;;;;;6.85;5.05;;;;;;;;;;6184344;23;20012;-72
2021/05/19 10:00:14;;;;;;;7.80;5.38;;;;;;;;;;6179759;23;20001;-74
2021/05/19 10:02:42;;;;;;;7.65;4.75;;;;;;;;;;6173053;23;20005;-72
2021/05/19 10:05:34;;;;;;;6.82;5.00;;;;;;;;;;6184200;23;20010;-72
2021/05/19 10:07:55;;;;;;;7.82;5.22;;;;;;;;;;6185018;23;20011;-72
2021/05/19 10:10:22;;;;;;;9.68;5.82;;;;;;;;;;6181629;23;20005;-71
2021/05/19 10:12:52;;;;;;;9.02;5.95;;;;;;;;;;6174687;23;20009;-74
2021/05/19 10:15:25;;;;;;;7.72;5.53;;;;;;;;;;6184521;23;20029;-72
2021/05/19 10:17:57;;;;;;;6.97;5.28;;;;;;;;;;6174921;23;20316;-73
2021/05/19 10:20:26;;;;;;;7.68;5.90;;;;;;;;;;6184130;23;20005;-73
2021/05/19 10:22:52;;;;;;;8.15;6.45;;;;;;;;;;6175475;23;20334;-72
2021/05/19 10:25:36;;;;;;;7.30;5.78;;;;;;;;;;6184243;23;20005;-72
2021/05/19 10:28:04;;;;;;;6.55;4.90;;;;;;;;;;6177494;23;20009;-73
2021/05/19 10:30:38;;;;;;;6.78;5.10;;;;;;;;;;6186112;23;20386;-73
2021/05/19 10:33:05;;;;;;;8.43;5.35;;;;;;;;;;6179674;23;20011;-73
2021/05/19 10:35:32;;;;;;;7.50;5.53;;;;;;;;;;6185896;23;20013;-73
2021/05/19 10:38:23;;;;;;;8.23;5.85;;;;;;;;;;6178470;23;20009;-73
2021/05/19 10:40:53;;;;;;;7.60;5.32;;;;;;;;;;6186098;23;20438;-72
2021/05/19 10:43:26;;;;;;;6.65;4.88;;;;;;;;;;6184907;23;20009;-73
2021/05/19 10:45:58;;;;;;;8.25;5.00;;;;;;;;;;6176853;23;20012;-73
2021/05/19 10:48:47;;;;;;;7.88;5.00;;;;;;;;;;6185374;23;20011;-74
2021/05/19 10:51:57;;;;;;;6.90;5.28;;;;;;;;;;6179823;23;20005;-73
2021/05/19 10:57:30;;;;;;;6.35;4.97;;;;;;;;;;6185874;23;20087;-72
2021/05/19 11:02:57;;;;;;;7.00;5.20;;;;;;;;;;6186001;23;20028;-72
2021/05/19 11:05:25;;;;;;;9.82;6.72;;;;;;;;;;6182102;23;20005;-73
2021/05/19 11:08:13;;;;;;;6.65;5.65;;;;;;;;;;6175341;23;20008;-73
2021/05/19 11:10:47;;;;;;;8.27;5.90;;;;;;;;;;6184501;23;20079;-73
2021/05/19 11:13:18;;;;;;;6.15;4.97;;;;;;;;;;6184431;23;20009;-72
2021/05/19 11:20:54;;;;;;;6.63;4.60;;;;;;;;;;6195899;23;20016;-71
2021/05/19 11:23:20;;;;;;;8.95;5.35;;;;;;;;;;6159485;23;20418;-72
2021/05/19 11:25:47;;;;;;;6.35;4.50;;;;;;;;;;6159692;23;20012;-72
2021/05/19 11:28:33;;;;;;;7.20;5.10;;;;;;;;;;6159394;23;20019;-72
2021/05/19 11:31:08;;;;;;;5.80;4.32;;;;;;;;;;6159128;23;20009;-73
2021/05/19 11:33:53;;;;;;;6.82;4.93;;;;;;;;;;6185741;23;20406;-72
2021/05/19 11:36:35;;;;;;;5.07;4.57;;;;;;;;;;6159480;23;20087;-71
2021/05/19 11:39:04;;;;;;;9.80;5.25;;;;;;;;;;6159337;23;20092;-71
2021/05/19 11:41:36;;;;;;;8.73;5.55;;;;;;;;;;6159326;23;20084;-69
2021/05/19 11:44:03;;;;;;;7.60;5.45;;;;;;;;;;6159241;23;20005;-73
2021/05/19 11:46:29;;;;;;;7.40;5.30;;;;;;;;;;6159236;23;20005;-72
2021/05/19 11:49:10;;;;;;;8.75;5.75;;;;;;;;;;6159360;23;20009;-72
2021/05/19 11:51:42;;;;;;;9.07;5.55;;;;;;;;;;6159803;23;20008;-74
2021/05/19 11:54:12;;;;;;;5.60;4.55;;;;;;;;;;6159499;23;20005;-72
2021/05/19 11:56:48;;;;;;;7.15;4.50;;;;;;;;;;6185855;23;20004;-75
2021/05/19 11:59:20;;;;;;;6.28;4.30;;;;;;;;;;6159109;23;20082;-73
2021/05/19 12:02:13;;;;;;;8.35;4.30;;;;;;;;;;6159197;23;20422;-72
2021/05/19 12:04:41;;;;;;;7.22;4.13;;;;;;;;;;6153287;23;20087;-72
2021/05/19 12:07:08;;;;;;;5.40;3.97;;;;;;;;;;6159261;23;20008;-73
2021/05/19 12:09:42;;;;;;;6.63;4.50;;;;;;;;;;6159158;23;20009;-71
2021/05/19 12:12:11;;;;;;;6.47;4.60;;;;;;;;;;6159122;23;20082;-70
2021/05/19 12:15:10;;;;;;;6.90;4.30;;;;;;;;;;6159114;23;20441;-73
2021/05/19 12:17:38;;;;;;;8.15;4.40;;;;;;;;;;6034069;23;20079;-70
2021/05/19 12:20:05;;;;;;;9.23;4.95;;;;;;;;;;6116049;23;20431;-71
2021/05/19 12:22:31;;;;;;;5.97;4.40;;;;;;;;;;6129529;23;20006;-70
2021/05/19 12:24:57;;;;;;;7.63;5.07;;;;;;;;;;6129888;23;20489;-70
2021/05/19 12:27:23;;;;;;;7.18;4.68;;;;;;;;;;6129978;23;20089;-71
2021/05/19 12:29:51;;;;;;;13.68;4.88;;;;;;;;;;6130739;23;20017;-71
2021/05/19 12:32:25;;;;;;;5.95;4.10;;;;;;;;;;6156556;23;20002;-73
2021/05/19 12:35:09;;;;;;;6.95;4.38;;;;;;;;;;6156429;23;20327;-70
2021/05/19 12:37:46;;;;;;;10.45;4.95;;;;;;;;;;6156373;23;20089;-71
2021/05/19 12:40:14;;;;;;;6.07;4.50;;;;;;;;;;6156124;23;19998;-70
2021/05/19 12:42:45;;;;;;;9.48;4.65;;;;;;;;;;6156309;23;20001;-70
2021/05/19 12:45:12;;;;;;;7.13;4.07;;;;;;;;;;6156668;23;20020;-68
2021/05/19 12:47:41;;;;;;;5.88;4.55;;;;;;;;;;6156335;23;20407;-71
2021/05/19 12:50:08;;;;;;;6.18;4.63;;;;;;;;;;6156284;23;20002;-70
2021/05/19 12:52:35;;;;;;;7.13;4.88;;;;;;;;;;6155805;23;20023;-69
2021/05/19 12:55:01;;;;;;;9.95;5.40;;;;;;;;;;6156254;23;20009;-70
2021/05/19 12:57:28;;;;;;;6.75;4.80;;;;;;;;;;6156091;23;20016;-71
2021/05/19 13:00:03;;;;;;;7.93;5.40;;;;;;;;;;6156155;23;20371;-69
2021/05/19 13:02:30;;;;;;;10.38;6.00;;;;;;;;;;6156068;23;19998;-70
2021/05/19 13:04:57;;;;;;;7.40;5.65;;;;;;;;;;6156170;23;20009;-70
2021/05/19 13:07:24;;;;;;;11.02;5.95;;;;;;;;;;6156105;23;20002;-70
2021/05/19 13:10:12;;;;;;;10.93;5.82;;;;;;;;;;6156105;23;20010;-70
2021/05/19 13:12:51;;;;;;;8.88;5.18;;;;;;;;;;6156159;23;20304;-70
2021/05/19 13:15:27;;;;;;;7.63;5.30;;;;;;;;;;6156441;23;20132;-71
2021/05/19 13:18:01;;;;;;;10.48;5.72;;;;;;;;;;6176274;23;20017;-70
2021/05/19 13:24:05;;;;;;;6.93;4.80;;;;;;;;;;6151208;23;20036;-70
2021/05/19 13:26:38;;;;;;;8.32;4.90;;;;;;;;;;6186008;23;20387;-71
2021/05/19 13:29:06;;;;;;;9.02;4.82;;;;;;;;;;6177477;23;20036;-71
2021/05/19 13:31:36;;;;;;;5.70;4.03;;;;;;;;;;6185837;23;20445;-70
2021/05/19 13:34:13;;;;;;;6.22;4.50;;;;;;;;;;6177376;23;20005;-71
2021/05/19 13:36:41;;;;;;;9.40;4.78;;;;;;;;;;6185865;23;20020;-71
2021/05/19 13:39:15;;;;;;;8.75;4.55;;;;;;;;;;6185569;23;20036;-70
2021/05/19 13:41:51;;;;;;;6.30;4.47;;;;;;;;;;6185722;23;20001;-72
2021/05/19 13:44:18;;;;;;;7.63;4.40;;;;;;;;;;6185810;23;20072;-70
2021/05/19 13:46:45;;;;;;;10.05;4.30;;;;;;;;;;6185918;23;20001;-71
2021/05/19 13:49:39;;;;;;;6.60;4.38;;;;;;;;;;6185882;23;20419;-76
2021/05/19 13:52:05;;;;;;;8.15;3.85;;;;;;;;;;6024057;23;20459;-72
2021/05/19 13:54:43;;;;;;;3.25;2.75;;;;;;;;;;6037100;23;20042;-71
2021/05/19 13:57:09;;;;;;;3.38;2.17;;;;;;;;;;6037282;23;20058;-71
2021/05/19 13:59:35;;;;;;;3.47;2.25;;;;;;;;;;6037253;23;20018;-71
2021/05/19 14:02:02;;;;;;;5.60;2.78;;;;;;;;;;6170747;23;20001;-70
2021/05/19 14:04:28;;;;;;;3.17;2.10;;;;;;;;;;6187674;23;20000;-71
2021/05/19 14:06:56;;;;;;;2.10;1.58;;;;;;;;;;6186333;23;20008;-70
2021/05/19 14:09:26;;;;;;;2.45;1.75;;;;;;;;;;6186073;23;20008;-73
2021/05/19 14:12:02;;;;;;;5.40;2.92;;;;;;;;;;6175891;23;20411;-71
2021/05/19 14:17:26;;;;;;;8.25;3.05;;;;;;;;;;6193158;23;20020;-69
2021/05/19 14:28:15;;;;;;;4.20;2.10;;;;;;;;;;6187480;23;20071;-71
2021/05/19 14:30:41;;;;;;;6.18;2.20;;;;;;;;;;6187225;23;20312;-71
2021/05/19 14:33:07;;;;;;;5.03;2.40;;;;;;;;;;6187389;23;20009;-71
2021/05/19 14:36:31;;;;;;;2.70;2.30;;;;;;;;;;6187346;23;20004;-72
2021/05/19 15:58:57;;;;;;;7.65;4.35;;;;;;;;;;6184665;23;20087;-70
2021/05/19 16:01:23;;;;;;;7.43;4.93;;;;;;;;;;6183570;23;20002;-71
2021/05/19 16:03:49;;;;;;;7.22;4.60;;;;;;;;;;6158649;23;20016;-69
2021/05/19 16:06:15;;;;;;;8.18;5.30;;;;;;;;;;6186176;23;20406;-70
2021/05/19 16:08:41;;;;;;;7.70;4.03;;;;;;;;;;6186152;23;20008;-69
2021/05/19 16:11:07;;;;;;;6.15;4.18;;;;;;;;;;6186220;23;20005;-68
2021/05/19 16:13:33;;;;;;;7.47;4.28;;;;;;;;;;6186062;23;20011;-67
2021/05/19 16:16:00;;;;;;;8.52;4.60;;;;;;;;;;6186643;23;20354;-67
2021/05/19 16:18:26;;;;;;;6.95;4.20;;;;;;;;;;6186356;23;20017;-68
2021/05/19 16:20:52;;;;;;;7.82;5.10;;;;;;;;;;6186213;23;20418;-67
2021/05/19 16:23:18;;;;;;;7.82;5.05;;;;;;;;;;6186062;23;20415;-70
2021/05/19 16:25:44;;;;;;;8.45;5.85;;;;;;;;;;6185780;23;20005;-69
2021/05/19 16:28:10;;;;;;;7.55;4.43;;;;;;;;;;6186195;23;20040;-68
2021/05/19 16:36:11;;;;;;;6.45;4.03;;;;;;;;;;6186071;23;20088;-67
2021/05/19 16:38:37;;;;;;;7.60;4.57;;;;;;;;;;6185854;23;20387;-68
2021/05/19 16:41:03;;;;;;;6.97;4.70;;;;;;;;;;6186074;23;20422;-67
2021/05/19 16:43:30;;;;;;;6.97;5.38;;;;;;;;;;6185857;23;20395;-67
2021/05/19 16:45:56;;;;;;;7.05;5.38;;;;;;;;;;6185912;23;20055;-68
2021/05/19 16:48:22;;;;;;;10.30;5.43;;;;;;;;;;6185856;23;20055;-68
2021/05/19 16:50:48;;;;;;;6.47;4.82;;;;;;;;;;6185337;23;20500;-67
2021/05/19 16:53:14;;;;;;;15.52;5.28;;;;;;;;;;6185685;23;20035;-67
2021/05/19 16:55:40;;;;;;;7.90;5.32;;;;;;;;;;6185926;23;20012;-67
2021/05/19 16:58:15;;;;;;;6.63;5.05;;;;;;;;;;5109778;27;20692;-68
2021/05/19 17:00:42;;;;;;;6.82;5.28;;;;;;;;;;5107102;28;20027;-70
2021/05/19 17:05:52;;;;;;;10.48;7.03;;;;;;;;;;5110435;28;20092;-68
2021/05/19 17:08:18;;;;;;;12.38;7.50;;;;;;;;;;5110028;28;20035;-67
2021/05/19 17:10:46;;;;;;;16.75;9.25;;;;;;;;;;5110251;28;20024;-67
2021/05/19 17:13:12;;;;;;;16.42;8.27;;;;;;;;;;5109942;28;20024;-67
2021/05/19 17:15:38;;;;;;;11.27;6.30;;;;;;;;;;5110112;28;20059;-68
2021/05/19 17:18:04;;;;;;;7.85;5.35;;;;;;;;;;5109897;28;20092;-69
2021/05/19 17:20:32;;;;;;;8.05;5.10;;;;;;;;;;5109935;28;20020;-68
2021/05/19 17:22:58;;;;;;;9.32;5.75;;;;;;;;;;5109811;28;20066;-66
2021/05/19 17:25:26;;;;;;;9.15;5.13;;;;;;;;;;5109897;28;20059;-67
2021/05/19 17:27:53;;;;;;;7.97;5.05;;;;;;;;;;5109663;28;20031;-67
2021/05/19 17:30:19;;;;;;;15.48;11.35;;;;;;;;;;5109773;28;20031;-67
2021/05/19 17:32:46;;;;;;;21.08;11.90;;;;;;;;;;5108567;28;20035;-69
2021/05/19 17:35:13;;;;;;;72.22;49.90;;;;;;;;;;5108434;28;20049;-67
2021/05/19 17:37:39;;;;;;;122.43;89.32;;;;;;;;;;5109220;28;20039;-67
2021/05/19 17:40:09;;;;;;;37.58;28.35;;;;;;;;;;5109660;28;20020;-68
2021/05/19 17:42:36;;;;;;;9.73;6.65;;;;;;;;;;5109608;28;20027;-67
2021/05/19 17:45:02;;;;;;;8.27;4.90;;;;;;;;;;5109656;28;20062;-68
2021/05/19 17:47:28;;;;;;;37.58;26.55;;;;;;;;;;5107412;28;20085;-68
2021/05/19 17:49:54;;;;;;;11.30;7.53;;;;;;;;;;5109614;28;20028;-69
2021/05/19 17:52:21;;;;;;;11.10;6.10;;;;;;;;;;5109074;28;20027;-69
2021/05/19 17:54:47;;;;;;;13.43;7.60;;;;;;;;;;5109186;28;20042;-67
2021/05/19 17:57:13;;;;;;;11.57;7.03;;;;;;;;;;5108714;28;20449;-66
2021/05/19 17:59:40;;;;;;;22.88;15.77;;;;;;;;;;5109107;28;20028;-66
2021/05/19 18:02:06;;;;;;;33.03;22.83;;;;;;;;;;5109110;28;20651;-67
2021/05/19 18:04:32;;;;;;;33.17;23.95;;;;;;;;;;5108910;28;20028;-69
2021/05/19 18:06:59;;;;;;;16.67;12.70;;;;;;;;;;5109043;28;20049;-68
2021/05/19 18:09:26;;;;;;;33.75;19.70;;;;;;;;;;5095680;28;20106;-69
2021/05/19 18:11:54;;;;;;;27.75;19.00;;;;;;;;;;5094007;28;20499;-69
2021/05/19 18:14:21;;;;;;;33.50;18.70;;;;;;;;;;5094875;28;20333;-68
2021/05/19 18:16:47;;;;;;;15.75;9.63;;;;;;;;;;5095194;28;20065;-69
2021/05/19 18:19:15;;;;;;;10.40;7.18;;;;;;;;;;5095363;28;20081;-68
2021/05/19 18:21:41;;;;;;;11.18;6.68;;;;;;;;;;5091765;28;20097;-68
2021/05/19 18:24:08;;;;;;;15.25;9.48;;;;;;;;;;5085098;28;20387;-69
2021/05/19 18:26:35;;;;;;;14.15;7.35;;;;;;;;;;5095265;28;20021;-69
2021/05/19 18:29:06;;;;;;;79.28;51.80;;;;;;;;;;5095168;28;20027;-68
2021/05/19 18:31:41;;;;;;;34.13;21.05;;;;;;;;;;5095266;28;20399;-68
2021/05/19 18:34:19;;;;;;;10.27;6.95;;;;;;;;;;5093481;28;20484;-68
2021/05/19 18:36:45;;;;;;;11.88;8.38;;;;;;;;;;5094718;28;20036;-68
2021/05/19 18:39:11;;;;;;;10.38;6.07;;;;;;;;;;5094737;28;20032;-67
2021/05/19 18:41:37;;;;;;;10.02;5.88;;;;;;;;;;5094651;28;20039;-70
2021/05/19 18:44:03;;;;;;;9.60;6.13;;;;;;;;;;5094724;28;20115;-67
2021/05/19 18:46:29;;;;;;;14.10;6.55;;;;;;;;;;5094517;28;20089;-67
2021/05/19 18:48:55;;;;;;;11.40;6.65;;;;;;;;;;5090974;28;20380;-67
2021/05/19 18:51:21;;;;;;;11.32;6.72;;;;;;;;;;5092458;28;20079;-67
2021/05/19 18:53:47;;;;;;;12.15;7.65;;;;;;;;;;5100159;28;20028;-67
2021/05/19 18:56:13;;;;;;;12.05;7.82;;;;;;;;;;5114211;28;20594;-66
2021/05/19 18:58:39;;;;;;;12.30;8.35;;;;;;;;;;5114190;28;20102;-67
2021/05/19 19:01:06;;;;;;;14.43;9.52;;;;;;;;;;5096159;28;20131;-67
2021/05/19 19:03:32;;;;;;;13.85;9.98;;;;;;;;;;5093674;28;20100;-68
2021/05/19 19:06:00;;;;;;;17.20;11.77;;;;;;;;;;5093614;28;20055;-66
2021/05/19 19:08:26;;;;;;;16.55;11.85;;;;;;;;;;5093378;28;20016;-69
2021/05/19 19:10:52;;;;;;;16.25;12.07;;;;;;;;;;5092326;28;20098;-68
2021/05/19 19:13:18;;;;;;;15.52;11.70;;;;;;;;;;5090158;28;20216;-68
2021/05/19 19:15:45;;;;;;;17.75;11.07;;;;;;;;;;5093386;28;20369;-67
2021/05/19 19:18:11;;;;;;;19.70;12.18;;;;;;;;;;5090045;28;20024;-70
2021/05/19 19:20:38;;;;;;;23.60;15.35;;;;;;;;;;5089286;28;20047;-68
2021/05/19 19:23:05;;;;;;;20.83;13.63;;;;;;;;;;5092603;28;20113;-69
2021/05/19 19:25:31;;;;;;;27.60;16.02;;;;;;;;;;5093223;28;20035;-69
2021/05/19 19:27:57;;;;;;;16.45;10.48;;;;;;;;;;5093235;28;20024;-67
2021/05/19 19:30:23;;;;;;;25.45;11.45;;;;;;;;;;5092619;28;20059;-67
2021/05/19 19:32:49;;;;;;;59.47;24.23;;;;;;;;;;5087747;28;20445;-69
2021/05/19 19:35:16;;;;;;;51.50;22.35;;;;;;;;;;5091306;28;20064;-67
2021/05/19 19:37:42;;;;;;;25.95;12.82;;;;;;;;;;5091436;28;20039;-67
2021/05/19 19:40:09;;;;;;;15.40;9.65;;;;;;;;;;5089423;28;20032;-69
2021/05/19 19:42:41;;;;;;;17.45;10.35;;;;;;;;;;5093198;28;20685;-68
2021/05/19 19:45:08;;;;;;;19.42;11.43;;;;;;;;;;5091823;28;20021;-69
2021/05/19 19:47:34;;;;;;;24.05;12.60;;;;;;;;;;5090812;28;20047;-67
2021/05/19 19:50:03;;;;;;;14.65;8.98;;;;;;;;;;5089475;28;20072;-68
2021/05/19 19:52:31;;;;;;;15.30;8.07;;;;;;;;;;5092412;28;20111;-68
2021/05/19 19:54:57;;;;;;;30.33;13.15;;;;;;;;;;5091965;28;20024;-68
2021/05/19 19:57:23;;;;;;;17.42;9.32;;;;;;;;;;5091655;28;20129;-68
2021/05/19 19:59:50;;;;;;;22.42;11.02;;;;;;;;;;5092038;28;20444;-68
2021/05/19 20:02:20;;;;;;;20.95;10.40;;;;;;;;;;5092194;28;20100;-68
2021/05/19 20:04:46;;;;;;;13.18;7.97;;;;;;;;;;5091847;28;20020;-68
2021/05/19 20:07:15;;;;;;;13.82;7.60;;;;;;;;;;5089412;28;20483;-67
2021/05/19 20:09:42;;;;;;;12.00;7.38;;;;;;;;;;5091549;28;20039;-67
2021/05/19 20:12:09;;;;;;;12.52;7.45;;;;;;;;;;5092375;28;20020;-67
2021/05/19 20:14:35;;;;;;;10.80;7.15;;;;;;;;;;5092460;28;20023;-68
2021/05/19 20:17:01;;;;;;;13.07;7.88;;;;;;;;;;5092206;28;20123;-67
2021/05/19 20:19:27;;;;;;;11.80;6.70;;;;;;;;;;5092767;28;20095;-67
2021/05/19 20:21:53;;;;;;;11.88;7.63;;;;;;;;;;5092765;28;20039;-68
2021/05/19 20:24:19;;;;;;;13.70;7.60;;;;;;;;;;5092447;28;20118;-68
2021/05/19 20:26:47;;;;;;;12.32;8.18;;;;;;;;;;5092560;28;20031;-68
2021/05/19 20:29:13;;;;;;;13.45;8.43;;;;;;;;;;5091528;28;20114;-68
2021/05/19 20:31:43;;;;;;;11.60;8.10;;;;;;;;;;5092762;28;20067;-67
2021/05/19 20:34:09;;;;;;;12.05;6.32;;;;;;;;;;5092837;28;20031;-68
2021/05/19 20:36:35;;;;;;;12.35;7.25;;;;;;;;;;5092733;28;20035;-67
2021/05/19 20:39:05;;;;;;;17.90;7.63;;;;;;;;;;5092711;28;20031;-69
2021/05/19 20:41:31;;;;;;;11.10;7.73;;;;;;;;;;5092799;28;20028;-68
2021/05/19 20:43:57;;;;;;;10.82;7.47;;;;;;;;;;5092776;28;20631;-68
2021/05/19 20:46:25;;;;;;;9.68;6.68;;;;;;;;;;5092690;28;20031;-67
2021/05/19 20:48:53;;;;;;;10.82;6.85;;;;;;;;;;5092787;28;20055;-68
2021/05/19 20:51:20;;;;;;;13.70;8.07;;;;;;;;;;5092277;28;20110;-69
2021/05/19 20:53:46;;;;;;;18.92;9.48;;;;;;;;;;5092628;28;20099;-70
2021/05/19 20:56:12;;;;;;;15.82;9.57;;;;;;;;;;5090816;28;20432;-69
2021/05/19 20:58:38;;;;;;;13.50;8.13;;;;;;;;;;5092529;28;20067;-69
2021/05/19 21:01:06;;;;;;;20.55;10.98;;;;;;;;;;5092351;28;20472;-70